createdAt,value
2023-04-03T00:01:03.624Z,7.85
2023-04-03T00:03:31.761Z,7.81
2023-04-03T00:05:59.767Z,7.60
2023-04-03T00:08:31.567Z,7.77
2023-04-03T00:10:59.579Z,7.99
2023-04-03T00:13:27.557Z,7.91
2023-04-03T00:15:55.704Z,8.01
2023-04-03T00:18:24.186Z,7.91
2023-04-03T00:20:52.238Z,7.90
2023-04-03T00:23:20.203Z,7.84
2023-04-03T00:25:49.528Z,7.80
2023-04-03T00:28:17.440Z,7.83
2023-04-03T00:30:45.484Z,7.97
2023-04-03T00:33:14.641Z,8.07
2023-04-03T00:35:43.443Z,8.21
2023-04-03T00:38:12.023Z,8.15
2023-04-03T00:40:43.556Z,8.26
2023-04-03T00:43:16.311Z,8.37
2023-04-03T00:45:46.577Z,8.46
2023-04-03T00:48:19.346Z,8.41
2023-04-03T00:50:48.015Z,8.38
2023-04-03T00:53:20.122Z,8.22
2023-04-03T00:55:50.365Z,8.26
2023-04-03T00:58:21.953Z,8.50
2023-04-03T01:00:58.530Z,8.44
2023-04-03T01:03:26.815Z,8.29
2023-04-03T01:05:54.937Z,8.38
2023-04-03T01:08:22.831Z,8.15
2023-04-03T01:10:50.737Z,7.83
2023-04-03T01:13:26.079Z,7.71
2023-04-03T01:15:54.371Z,7.92
2023-04-03T01:18:23.970Z,7.81
2023-04-03T01:21:43.644Z,7.82
2023-04-03T01:24:27.514Z,7.64
2023-04-03T01:26:55.524Z,7.35
2023-04-03T01:29:24.828Z,7.35
2023-04-03T01:31:56.626Z,7.31
2023-04-03T01:34:25.439Z,7.39
2023-04-03T01:36:54.309Z,7.37
2023-04-03T01:39:22.410Z,7.67
2023-04-03T01:41:50.869Z,7.78
2023-04-03T01:44:18.849Z,7.71
2023-04-03T01:46:47.451Z,7.70
2023-04-03T01:49:16.767Z,7.68
2023-04-03T01:51:44.694Z,7.83
2023-04-03T01:54:12.839Z,7.93
2023-04-03T01:56:41.106Z,8.03
2023-04-03T01:59:09.012Z,7.66
2023-04-03T02:01:37.352Z,7.34
2023-04-03T02:04:05.474Z,7.48
2023-04-03T02:06:35.003Z,7.73
2023-04-03T02:09:03.076Z,7.65
2023-04-03T02:11:31.113Z,7.87
2023-04-03T02:13:59.062Z,7.83
2023-04-03T02:16:27.038Z,7.94
2023-04-03T02:18:54.964Z,7.89
2023-04-03T02:21:22.878Z,7.94
2023-04-03T02:23:52.206Z,7.97
2023-04-03T02:26:20.134Z,8.03
2023-04-03T02:28:48.150Z,8.02
2023-04-03T02:31:16.233Z,7.93
2023-04-03T02:33:44.197Z,7.68
2023-04-03T02:36:12.315Z,7.38
2023-04-03T02:38:40.380Z,7.69
2023-04-03T02:41:11.648Z,7.76
2023-04-03T02:43:40.025Z,7.46
2023-04-03T02:46:08.499Z,7.33
2023-04-03T02:48:36.590Z,7.26
2023-04-03T02:51:04.689Z,7.25
2023-04-03T02:53:32.641Z,7.52
2023-04-03T02:56:00.551Z,7.49
2023-04-03T02:58:29.874Z,7.32
2023-04-03T03:00:57.794Z,7.39
2023-04-03T03:03:25.730Z,7.56
2023-04-03T03:06:03.621Z,7.66
2023-04-03T03:08:31.572Z,7.67
2023-04-03T03:10:59.598Z,7.66
2023-04-03T03:13:27.526Z,7.80
2023-04-03T03:15:56.890Z,7.81
2023-04-03T03:18:25.435Z,7.76
2023-04-03T03:20:54.025Z,7.82
2023-04-03T03:23:22.232Z,7.81
2023-04-03T03:25:50.358Z,7.62
2023-04-03T03:28:18.289Z,7.63
2023-04-03T03:30:46.448Z,7.75
2023-04-03T03:33:16.188Z,7.77
2023-04-03T03:35:44.222Z,7.71
2023-04-03T03:38:12.546Z,7.64
2023-04-03T03:40:40.444Z,7.58
2023-04-03T03:43:08.373Z,7.50
2023-04-03T03:45:36.487Z,7.48
2023-04-03T03:48:05.995Z,7.38
2023-04-03T03:50:35.814Z,7.31
2023-04-03T03:53:03.768Z,7.16
2023-04-03T03:55:31.679Z,6.97
2023-04-03T03:57:59.748Z,6.86
2023-04-03T04:00:28.182Z,7.10
2023-04-03T04:02:58.742Z,7.30
2023-04-03T04:05:27.355Z,7.37
2023-04-03T04:07:56.992Z,7.39
2023-04-03T04:10:24.898Z,7.37
2023-04-03T04:12:52.852Z,7.29
2023-04-03T04:15:22.595Z,7.29
2023-04-03T04:17:50.709Z,7.24
2023-04-03T04:20:19.290Z,7.05
2023-04-03T04:22:47.294Z,7.07
2023-04-03T04:25:16.789Z,6.92
2023-04-03T04:27:44.783Z,7.01
2023-04-03T04:30:13.677Z,6.94
2023-04-03T04:32:41.797Z,7.01
2023-04-03T04:35:10.872Z,6.96
2023-04-03T04:37:38.951Z,6.99
2023-04-03T04:40:08.163Z,6.97
2023-04-03T04:42:37.465Z,7.03
2023-04-03T04:45:06.153Z,7.13
2023-04-03T04:47:34.189Z,6.76
2023-04-03T04:50:02.104Z,6.99
2023-04-03T04:52:30.072Z,7.25
2023-04-03T04:54:58.045Z,7.38
2023-04-03T04:57:26.295Z,7.56
2023-04-03T04:59:55.653Z,7.75
2023-04-03T05:02:23.629Z,7.90
2023-04-03T05:04:53.312Z,8.11
2023-04-03T05:07:21.305Z,8.27
2023-04-03T05:09:49.276Z,8.53
2023-04-03T05:12:18.648Z,8.76
2023-04-03T05:14:46.543Z,8.91
2023-04-03T05:17:16.154Z,9.05
2023-04-03T05:19:44.058Z,9.29
2023-04-03T05:22:12.045Z,9.52
2023-04-03T05:24:40.409Z,9.64
2023-04-03T05:27:08.322Z,9.87
2023-04-03T05:29:36.208Z,10.03
2023-04-03T05:32:04.510Z,10.38
2023-04-03T05:34:33.994Z,10.77
2023-04-03T05:37:04.232Z,10.95
2023-04-03T05:39:32.805Z,10.86
2023-04-03T05:42:00.781Z,11.13
2023-04-03T05:44:28.703Z,11.23
2023-04-03T05:46:56.812Z,11.44
2023-04-03T05:49:24.897Z,11.67
2023-04-03T05:51:54.350Z,11.89
2023-04-03T05:54:26.124Z,12.06
2023-04-03T05:56:55.096Z,12.39
2023-04-03T05:59:23.423Z,12.37
2023-04-03T06:01:51.964Z,12.66
2023-04-03T06:04:20.289Z,12.62
2023-04-03T06:06:50.548Z,12.73
2023-04-03T06:09:21.961Z,12.67
2023-04-03T06:11:50.072Z,12.74
2023-04-03T06:14:18.028Z,12.72
2023-04-03T06:16:46.510Z,12.76
2023-04-03T06:19:14.978Z,12.77
2023-04-03T06:21:43.647Z,12.81
2023-04-03T06:24:14.823Z,12.78
2023-04-03T06:26:44.662Z,12.76
2023-04-03T06:29:12.714Z,12.89
2023-04-03T06:31:41.004Z,13.15
2023-04-03T06:34:09.870Z,13.35
2023-04-03T06:36:37.975Z,13.47
2023-04-03T06:39:06.269Z,13.65
2023-04-03T06:41:37.119Z,13.71
2023-04-03T06:44:07.408Z,14.01
2023-04-03T06:46:35.416Z,14.33
2023-04-03T06:49:03.846Z,14.37
2023-04-03T06:51:32.466Z,14.53
2023-04-03T06:54:02.299Z,14.63
2023-04-03T06:56:30.956Z,14.68
2023-04-03T06:58:59.795Z,14.55
2023-04-03T07:01:32.535Z,14.72
2023-04-03T07:04:01.333Z,14.71
2023-04-03T07:06:29.383Z,14.81
2023-04-03T07:08:57.971Z,14.55
2023-04-03T07:11:27.403Z,14.61
2023-04-03T07:13:55.588Z,14.78
2023-04-03T07:16:23.635Z,14.04
2023-04-03T07:18:53.239Z,14.15
2023-04-03T07:21:21.363Z,14.11
2023-04-03T07:26:23.468Z,13.82
2023-04-03T07:28:51.969Z,14.01
2023-04-03T07:31:20.198Z,14.18
2023-04-03T07:33:48.406Z,14.33
2023-04-03T07:36:21.079Z,14.47
2023-04-03T07:38:49.073Z,14.71
2023-04-03T07:41:18.880Z,14.78
2023-04-03T07:43:47.612Z,14.87
2023-04-03T07:46:15.617Z,14.95
2023-04-03T07:48:43.648Z,15.00
2023-04-03T07:51:12.207Z,15.15
2023-04-03T07:53:41.574Z,15.21
2023-04-03T07:56:10.622Z,15.35
2023-04-03T07:58:39.255Z,15.46
2023-04-03T08:01:07.312Z,15.57
2023-04-03T08:03:35.406Z,15.56
2023-04-03T08:06:06.178Z,15.83
2023-04-03T08:08:36.503Z,16.03
2023-04-03T08:11:07.184Z,16.17
2023-04-03T08:13:36.730Z,15.99
2023-04-03T08:16:14.062Z,16.13
2023-04-03T08:18:42.131Z,16.26
2023-04-03T08:21:11.865Z,16.15
2023-04-03T08:23:40.494Z,16.25
2023-04-03T08:26:11.891Z,16.43
2023-04-03T08:28:40.150Z,16.50
2023-04-03T08:31:12.038Z,16.54
2023-04-03T08:33:41.346Z,16.68
2023-04-03T08:36:18.252Z,16.65
2023-04-03T08:38:46.393Z,16.65
2023-04-03T08:41:21.412Z,16.79
2023-04-03T08:44:00.559Z,16.69
2023-04-03T08:46:41.118Z,16.88
2023-04-03T08:49:25.712Z,16.86
2023-04-03T08:51:55.088Z,16.81
2023-04-03T08:54:33.955Z,16.95
2023-04-03T08:57:07.848Z,16.80
2023-04-03T08:59:38.002Z,17.02
2023-04-03T09:02:16.306Z,17.08
2023-04-03T09:04:44.294Z,17.05
2023-04-03T09:07:20.757Z,16.89
2023-04-03T09:09:51.112Z,17.02
2023-04-03T09:12:27.219Z,17.06
2023-04-03T09:15:03.242Z,17.08
2023-04-03T09:17:43.248Z,17.16
2023-04-03T09:20:22.425Z,17.12
2023-04-03T09:22:52.945Z,16.77
2023-04-03T09:25:24.374Z,17.03
2023-04-03T09:27:54.613Z,16.84
2023-04-03T09:30:24.598Z,16.25
2023-04-03T09:32:55.211Z,16.37
2023-04-03T09:35:32.700Z,16.29
2023-04-03T09:38:17.851Z,16.61
2023-04-03T09:40:47.335Z,16.75
2023-04-03T09:43:28.854Z,16.74
2023-04-03T09:45:58.645Z,16.69
2023-04-03T09:48:29.322Z,16.70
2023-04-03T09:51:04.166Z,16.85
2023-04-03T09:53:36.531Z,16.90
2023-04-03T09:56:08.027Z,17.08
2023-04-03T09:58:49.872Z,16.75
2023-04-03T10:01:32.501Z,16.94
2023-04-03T10:04:12.270Z,17.11
2023-04-03T10:06:44.542Z,17.33
2023-04-03T10:09:24.575Z,16.67
2023-04-03T10:12:05.938Z,16.91
2023-04-03T10:14:37.157Z,17.20
2023-04-03T10:17:17.219Z,17.48
2023-04-03T10:19:49.651Z,17.55
2023-04-03T10:22:25.280Z,17.45
2023-04-03T10:25:07.488Z,17.30
2023-04-03T10:27:51.132Z,17.50
2023-04-03T10:30:35.094Z,17.67
2023-04-03T10:33:20.166Z,18.00
2023-04-03T10:35:59.760Z,18.05
2023-04-03T10:38:40.388Z,17.76
2023-04-03T10:41:18.433Z,17.67
2023-04-03T10:43:56.500Z,17.93
2023-04-03T10:46:31.871Z,17.96
2023-04-03T10:49:16.096Z,17.79
2023-04-03T10:51:46.705Z,18.27
2023-04-03T10:54:21.748Z,18.33
2023-04-03T10:57:04.437Z,18.62
2023-04-03T10:59:41.272Z,17.27
2023-04-03T11:02:20.158Z,17.42
2023-04-03T11:04:53.591Z,17.25
2023-04-03T11:07:24.373Z,17.69
2023-04-03T11:09:56.444Z,17.31
2023-04-03T11:12:31.661Z,17.39
2023-04-03T11:14:59.955Z,17.93
2023-04-03T11:17:36.228Z,18.54
2023-04-03T11:20:12.534Z,18.19
2023-04-03T11:22:44.303Z,18.46
2023-04-03T11:25:21.089Z,18.58
2023-04-03T11:27:53.574Z,18.17
2023-04-03T11:30:26.285Z,17.95
2023-04-03T11:33:19.075Z,17.69
2023-04-03T11:35:49.572Z,17.56
2023-04-03T11:38:24.110Z,17.98
2023-04-03T11:40:53.243Z,18.09
2023-04-03T11:43:27.066Z,18.02
2023-04-03T11:45:56.997Z,17.93
2023-04-03T11:49:08.853Z,17.95
2023-04-03T11:51:52.803Z,18.05
2023-04-03T11:54:56.234Z,17.76
2023-04-03T11:57:47.727Z,17.21
2023-04-03T12:00:55.892Z,17.53
2023-04-03T12:04:16.021Z,17.40
2023-04-03T12:07:19.022Z,17.26
2023-04-03T12:10:06.383Z,17.30
2023-04-03T12:12:47.573Z,16.85
2023-04-03T12:15:59.596Z,17.00
2023-04-03T12:18:48.386Z,17.27
2023-04-03T12:21:23.532Z,17.40
2023-04-03T12:24:13.076Z,17.36
2023-04-03T12:26:54.836Z,17.23
2023-04-03T12:29:33.807Z,16.95
2023-04-03T12:32:26.007Z,16.97
2023-04-03T12:35:15.846Z,17.18
2023-04-03T12:38:03.179Z,17.14
2023-04-03T12:40:46.356Z,17.39
2023-04-03T12:43:35.827Z,17.28
2023-04-03T12:46:08.833Z,17.18
2023-04-03T12:48:55.650Z,17.05
2023-04-03T12:51:36.290Z,17.12
2023-04-03T12:54:20.939Z,16.97
2023-04-03T12:56:59.410Z,16.97
2023-04-03T12:59:34.179Z,16.88
2023-04-03T13:02:16.879Z,16.87
2023-04-03T13:04:57.941Z,16.57
2023-04-03T13:07:40.469Z,16.69
2023-04-03T13:10:31.176Z,16.83
2023-04-03T13:13:18.885Z,16.67
2023-04-03T13:15:51.543Z,16.41
2023-04-03T13:18:40.335Z,16.38
2023-04-03T13:21:23.533Z,16.46
2023-04-03T13:24:13.968Z,16.03
2023-04-03T13:26:45.465Z,16.15
2023-04-03T13:29:31.086Z,16.34
2023-04-03T13:32:01.436Z,16.19
2023-04-03T13:34:32.673Z,16.04
2023-04-03T13:37:04.298Z,15.95
2023-04-03T13:39:34.125Z,15.82
2023-04-03T13:42:05.888Z,15.88
2023-04-03T13:44:40.599Z,15.92
2023-04-03T13:47:21.186Z,15.87
2023-04-03T13:50:02.339Z,15.79
2023-04-03T13:52:33.618Z,15.69
2023-04-03T13:55:07.921Z,15.76
2023-04-03T13:57:38.378Z,15.69
2023-04-03T14:00:24.072Z,15.47
2023-04-03T14:02:52.103Z,15.58
2023-04-03T14:05:22.275Z,15.54
2023-04-03T14:07:50.400Z,15.42
2023-04-03T14:10:18.684Z,15.54
2023-04-03T14:12:47.248Z,15.41
2023-04-03T14:15:22.283Z,15.56
2023-04-03T14:17:53.457Z,15.58
2023-04-03T14:20:25.029Z,15.44
2023-04-03T14:22:54.720Z,15.41
2023-04-03T14:25:24.592Z,15.34
2023-04-03T14:27:54.801Z,15.32
2023-04-03T14:30:25.912Z,15.28
2023-04-03T14:32:56.206Z,15.22
2023-04-03T14:35:24.851Z,15.29
2023-04-03T14:37:54.220Z,15.27
2023-04-03T14:40:25.540Z,15.23
2023-04-03T14:42:56.277Z,15.16
2023-04-03T14:45:25.664Z,15.05
2023-04-03T14:47:57.695Z,14.99
2023-04-03T14:50:28.570Z,14.76
2023-04-03T14:52:59.047Z,15.00
2023-04-03T14:55:27.739Z,15.13
2023-04-03T14:57:56.323Z,15.08
2023-04-03T15:00:24.802Z,14.92
2023-04-03T15:02:53.685Z,14.88
2023-04-03T15:05:23.421Z,14.64
2023-04-03T15:07:54.821Z,14.78
2023-04-03T15:10:26.106Z,14.64
2023-04-03T15:12:54.942Z,14.41
2023-04-03T15:15:24.319Z,14.09
2023-04-03T15:17:55.616Z,14.31
2023-04-03T15:20:27.325Z,14.37
2023-04-03T15:22:57.249Z,14.36
2023-04-03T15:25:26.555Z,14.25
2023-04-03T15:27:55.784Z,14.34
2023-04-03T15:30:23.936Z,14.21
2023-04-03T15:32:52.683Z,14.25
2023-04-03T15:35:21.034Z,13.97
2023-04-03T15:37:50.609Z,14.08
2023-04-03T15:40:18.820Z,14.17
2023-04-03T15:42:47.206Z,13.83
2023-04-03T15:45:15.139Z,13.89
2023-04-03T15:47:44.320Z,13.93
2023-04-03T15:50:12.803Z,13.89
2023-04-03T15:52:40.691Z,13.96
2023-04-03T15:55:10.650Z,13.82
2023-04-03T16:00:13.463Z,13.67
2023-04-03T16:02:42.865Z,13.67
2023-04-03T16:05:12.390Z,13.76
2023-04-03T16:07:41.035Z,13.68
2023-04-03T16:10:12.576Z,13.70
2023-04-03T16:12:40.562Z,13.48
2023-04-03T16:15:10.156Z,13.54
2023-04-03T16:17:40.564Z,13.52
2023-04-03T16:20:10.539Z,13.46
2023-04-03T16:22:39.506Z,13.64
2023-04-03T16:25:09.150Z,13.75
2023-04-03T16:27:39.143Z,13.64
2023-04-03T16:30:09.444Z,13.77
2023-04-03T16:32:39.102Z,13.75
2023-04-03T16:35:08.209Z,13.63
2023-04-03T16:37:36.237Z,13.51
2023-04-03T16:40:10.819Z,13.61
2023-04-03T16:42:40.196Z,13.65
2023-04-03T16:45:09.396Z,13.72
2023-04-03T16:47:37.354Z,13.37
2023-04-03T16:50:06.115Z,13.51
2023-04-03T16:52:34.631Z,13.35
2023-04-03T16:55:02.641Z,13.21
2023-04-03T16:57:30.645Z,13.39
2023-04-03T16:59:59.909Z,13.44
2023-04-03T17:02:27.974Z,13.19
2023-04-03T17:04:56.076Z,13.00
2023-04-03T17:07:25.877Z,13.03
2023-04-03T17:09:54.941Z,13.00
2023-04-03T17:12:23.585Z,12.74
2023-04-03T17:14:51.810Z,12.67
2023-04-03T17:17:24.204Z,12.80
2023-04-03T17:19:52.159Z,12.99
2023-04-03T17:22:20.080Z,12.87
2023-04-03T17:24:48.568Z,12.82
2023-04-03T17:27:16.569Z,12.79
2023-04-03T17:29:44.486Z,12.83
2023-04-03T17:32:12.409Z,12.74
2023-04-03T17:34:41.821Z,12.55
2023-04-03T17:37:10.022Z,12.49
2023-04-03T17:39:37.964Z,12.49
2023-04-03T17:42:05.979Z,12.34
2023-04-03T17:44:34.639Z,12.32
2023-04-03T17:47:03.060Z,12.21
2023-04-03T17:49:31.561Z,12.12
2023-04-03T17:52:01.028Z,12.19
2023-04-03T17:54:28.901Z,12.01
2023-04-03T17:56:56.790Z,12.05
2023-04-03T17:59:24.764Z,12.08
2023-04-03T18:01:52.767Z,12.04
2023-04-03T18:04:20.876Z,12.08
2023-04-03T18:06:51.931Z,12.04
2023-04-03T18:09:24.236Z,11.95
2023-04-03T18:11:53.326Z,12.02
2023-04-03T18:14:24.989Z,12.08
2023-04-03T18:16:53.099Z,12.02
2023-04-03T18:19:23.363Z,11.95
2023-04-03T18:21:52.479Z,11.96
2023-04-03T18:24:23.002Z,11.80
2023-04-03T18:26:54.839Z,11.95
2023-04-03T18:29:23.278Z,11.73
2023-04-03T18:31:55.106Z,11.77
2023-04-03T18:34:22.999Z,11.99
2023-04-03T18:36:52.428Z,12.08
2023-04-03T18:39:24.016Z,11.83
2023-04-03T18:41:53.225Z,11.80
2023-04-03T18:44:24.947Z,11.59
2023-04-03T18:46:53.731Z,11.71
2023-04-03T18:49:22.016Z,11.73
2023-04-03T18:51:50.709Z,11.63
2023-04-03T18:54:18.591Z,11.57
2023-04-03T18:56:48.364Z,11.74
2023-04-03T18:59:16.505Z,11.75
2023-04-03T19:01:44.501Z,11.66
2023-04-03T19:04:12.751Z,11.48
2023-04-03T19:06:42.703Z,11.31
2023-04-03T19:09:11.416Z,11.31
2023-04-03T19:11:39.406Z,11.26
2023-04-03T19:16:40.179Z,11.11
2023-04-03T19:19:08.173Z,11.21
2023-04-03T19:21:40.860Z,11.05
2023-04-03T19:24:09.626Z,11.19
2023-04-03T19:26:37.801Z,11.20
2023-04-03T19:29:06.153Z,11.12
2023-04-03T19:31:37.199Z,10.97
2023-04-03T19:34:05.679Z,10.96
2023-04-03T19:36:34.724Z,10.93
2023-04-03T19:39:02.938Z,10.91
2023-04-03T19:41:32.740Z,10.92
2023-04-03T19:44:01.264Z,10.85
2023-04-03T19:46:31.072Z,10.80
2023-04-03T19:49:00.621Z,10.88
2023-04-03T19:51:28.569Z,10.96
2023-04-03T19:53:56.501Z,10.88
2023-04-03T19:56:24.580Z,10.67
2023-04-03T19:58:54.282Z,10.83
2023-04-03T20:01:22.767Z,10.66
2023-04-03T20:03:50.809Z,10.57
2023-04-03T20:06:21.639Z,10.52
2023-04-03T20:08:49.713Z,10.50
2023-04-03T20:11:17.754Z,10.35
2023-04-03T20:13:45.708Z,10.47
2023-04-03T20:16:14.156Z,10.36
2023-04-03T20:18:42.510Z,10.24
2023-04-03T20:21:10.912Z,10.09
2023-04-03T20:23:40.475Z,10.02
2023-04-03T20:26:13.175Z,9.84
2023-04-03T20:28:43.967Z,9.86
2023-04-03T20:31:14.237Z,9.73
2023-04-03T20:33:42.920Z,9.77
2023-04-03T20:36:11.183Z,9.71
2023-04-03T20:38:40.925Z,9.73
2023-04-03T20:41:09.399Z,9.76
2023-04-03T20:43:38.574Z,9.66
2023-04-03T20:46:07.045Z,9.65
2023-04-03T20:48:35.730Z,9.68
2023-04-03T20:51:10.325Z,9.62
2023-04-03T20:53:38.794Z,9.67
2023-04-03T20:56:09.285Z,9.54
2023-04-03T20:58:39.601Z,9.68
2023-04-03T21:01:15.970Z,9.73
2023-04-03T21:03:46.529Z,9.70
2023-04-03T21:06:52.124Z,9.75
2023-04-03T21:09:58.041Z,9.72
2023-04-03T21:13:03.486Z,9.83
2023-04-03T21:15:54.979Z,9.76
2023-04-03T21:18:48.187Z,9.62
2023-04-03T21:21:22.450Z,9.65
2023-04-03T21:23:52.034Z,9.58
2023-04-03T21:26:21.735Z,9.64
2023-04-03T21:28:52.551Z,9.51
2023-04-03T21:31:22.256Z,9.62
2023-04-03T21:33:51.835Z,9.63
2023-04-03T21:36:19.793Z,9.70
2023-04-03T21:38:48.316Z,9.68
2023-04-03T21:41:16.395Z,9.63
2023-04-03T21:43:47.033Z,9.63
2023-04-03T21:46:15.925Z,9.61
2023-04-03T21:48:45.690Z,9.66
2023-04-03T21:51:16.293Z,9.67
2023-04-03T21:53:44.959Z,9.59
2023-04-03T21:56:13.685Z,9.56
2023-04-03T21:58:41.647Z,9.68
2023-04-03T22:01:11.225Z,9.65
2023-04-03T22:03:39.298Z,9.68
2023-04-03T22:06:07.462Z,9.63
2023-04-03T22:08:37.416Z,9.51
2023-04-03T22:11:07.550Z,9.12
2023-04-03T22:13:36.263Z,8.59
2023-04-03T22:16:04.905Z,8.28
2023-04-03T22:18:33.709Z,8.18
2023-04-03T22:21:01.812Z,7.89
2023-04-03T22:23:29.768Z,7.89
2023-04-03T22:26:03.783Z,7.87
2023-04-03T22:28:32.944Z,7.81
2023-04-03T22:31:03.948Z,7.51
2023-04-03T22:33:32.164Z,7.58
2023-04-03T22:36:00.231Z,7.58
2023-04-03T22:38:28.344Z,7.51
2023-04-03T22:41:00.145Z,7.42
2023-04-03T22:43:30.995Z,7.38
2023-04-03T22:45:59.370Z,7.37
2023-04-03T22:48:27.317Z,7.24
2023-04-03T22:50:55.768Z,7.21
2023-04-03T22:53:24.050Z,7.23
2023-04-03T22:55:56.233Z,7.16
2023-04-03T22:58:26.586Z,7.17
2023-04-03T23:00:57.646Z,7.16
2023-04-03T23:03:26.057Z,7.12
2023-04-03T23:05:56.262Z,6.75
2023-04-03T23:08:24.469Z,6.78
2023-04-03T23:10:55.550Z,6.78
2023-04-03T23:13:23.762Z,6.67
2023-04-03T23:15:54.499Z,6.60
2023-04-03T23:18:24.129Z,6.58
2023-04-03T23:20:54.960Z,6.55
2023-04-03T23:23:23.835Z,6.51
2023-04-03T23:25:54.708Z,6.39
2023-04-03T23:28:23.010Z,6.54
2023-04-03T23:30:51.858Z,6.36
2023-04-03T23:33:19.850Z,6.28
2023-04-03T23:35:49.360Z,6.41
2023-04-03T23:38:17.763Z,6.39
2023-04-03T23:40:47.452Z,6.32
2023-04-03T23:43:15.666Z,6.41
2023-04-03T23:45:45.788Z,6.33
2023-04-03T23:48:13.838Z,6.32
2023-04-03T23:50:42.685Z,6.30
2023-04-03T23:53:13.502Z,6.20
2023-04-03T23:55:41.877Z,6.16
2023-04-03T23:58:10.774Z,6.24
